Time;durP1;ratioP1;P1;durP2;ratioP2;P2;SDS_P1;SDS_P2;PMS_P1;PMS_P2;Temp;Humidity;BMP_temperature;BMP_pressure;BME280_temperature;BME280_humidity;BME280_pressure;Samples;Min_cycle;Max_cycle;Signal;HPM_P1;HPM_P2
2023/12/19 00:00:07;;;;;;;7.43;6.40;;;2.60;99.90;;;;;;5031884;28;20162;-69
2023/12/19 00:02:33;;;;;;;9.60;7.30;;;2.60;99.90;;;;;;5031851;28;20968;-69
2023/12/19 00:04:58;;;;;;;11.93;7.50;;;2.50;99.90;;;;;;5031890;28;20551;-69
2023/12/19 00:07:24;;;;;;;9.70;7.60;;;2.50;99.90;;;;;;5031730;28;20176;-69
2023/12/19 00:09:49;;;;;;;9.20;6.93;;;2.50;99.90;;;;;;5033525;28;20605;-69
2023/12/19 00:12:15;;;;;;;7.83;7.03;;;2.50;99.90;;;;;;5064693;22;20229;-68
2023/12/19 00:14:41;;;;;;;9.40;6.50;;;2.60;99.90;;;;;;5075625;28;20529;-68
2023/12/19 00:17:06;;;;;;;8.90;7.63;;;2.60;99.90;;;;;;5075110;28;20173;-68
2023/12/19 00:19:32;;;;;;;8.63;7.63;;;2.60;99.90;;;;;;5075601;28;20223;-68
2023/12/19 00:21:57;;;;;;;7.63;6.87;;;2.60;99.90;;;;;;5073055;28;20195;-68
2023/12/19 00:24:23;;;;;;;7.37;6.67;;;2.50;99.90;;;;;;5055406;28;20220;-68
2023/12/19 00:26:48;;;;;;;8.33;7.10;;;2.50;99.90;;;;;;5055155;28;20181;-67
2023/12/19 00:29:14;;;;;;;8.93;8.10;;;2.50;99.90;;;;;;5055492;28;20170;-67
2023/12/19 00:31:39;;;;;;;14.50;8.43;;;2.40;99.90;;;;;;5055596;28;20703;-68
2023/12/19 00:34:05;;;;;;;8.43;6.40;;;2.30;99.90;;;;;;5055248;28;20193;-67
2023/12/19 00:36:30;;;;;;;8.87;7.73;;;2.30;99.90;;;;;;5055185;28;20174;-68
2023/12/19 00:38:56;;;;;;;9.23;6.50;;;2.30;99.90;;;;;;5055359;28;20734;-68
2023/12/19 00:41:22;;;;;;;7.87;7.17;;;2.30;99.90;;;;;;5055204;28;20698;-68
2023/12/19 00:43:47;;;;;;;9.03;7.57;;;2.30;99.90;;;;;;5054988;28;20205;-67
2023/12/19 00:46:13;;;;;;;8.27;6.00;;;2.40;99.90;;;;;;5054943;28;20201;-68
2023/12/19 00:48:38;;;;;;;7.47;5.67;;;2.40;99.90;;;;;;5054968;28;20253;-67
2023/12/19 00:51:13;;;;;;;5.93;5.20;;;2.40;99.90;;;;;;5055010;28;20173;-67
2023/12/19 00:53:39;;;;;;;8.23;6.70;;;2.40;99.90;;;;;;5054899;28;20204;-67
2023/12/19 00:56:07;;;;;;;7.53;6.00;;;2.40;99.90;;;;;;5054927;28;20420;-68
2023/12/19 00:58:33;;;;;;;8.20;6.57;;;2.30;99.90;;;;;;5054552;28;20503;-67
2023/12/19 01:00:58;;;;;;;6.43;5.00;;;2.30;99.90;;;;;;5054758;28;20495;-67
2023/12/19 01:03:24;;;;;;;7.23;6.27;;;2.30;99.90;;;;;;5054590;28;20204;-68
2023/12/19 01:05:49;;;;;;;8.23;5.90;;;2.20;99.90;;;;;;5054769;28;20185;-67
2023/12/19 01:08:15;;;;;;;7.73;7.03;;;2.20;99.90;;;;;;5054553;28;20257;-68
2023/12/19 01:10:41;;;;;;;6.87;5.43;;;2.20;99.90;;;;;;5054568;28;20592;-67
2023/12/19 01:13:06;;;;;;;7.13;5.83;;;2.10;99.90;;;;;;5054373;28;20323;-67
2023/12/19 01:15:32;;;;;;;6.20;5.60;;;2.10;99.90;;;;;;5054534;28;20443;-68
2023/12/19 01:17:57;;;;;;;5.90;5.07;;;2.10;99.90;;;;;;5053643;28;20177;-67
2023/12/19 01:20:23;;;;;;;6.10;4.60;;;2.10;99.90;;;;;;5054124;28;20178;-68
2023/12/19 01:22:48;;;;;;;6.00;5.00;;;2.20;99.90;;;;;;5054379;28;20197;-68
2023/12/19 01:25:14;;;;;;;5.40;4.90;;;2.20;99.90;;;;;;5047291;28;20170;-67
2023/12/19 01:27:39;;;;;;;5.43;4.93;;;2.10;99.90;;;;;;5034210;28;20207;-67
2023/12/19 01:30:05;;;;;;;5.67;5.00;;;2.10;99.90;;;;;;5034223;28;20166;-67
2023/12/19 01:32:31;;;;;;;4.33;3.80;;;2.10;99.90;;;;;;5034430;28;20560;-67
2023/12/19 01:34:56;;;;;;;4.83;4.07;;;2.10;99.90;;;;;;5034460;28;20435;-67
2023/12/19 01:37:22;;;;;;;4.70;4.23;;;2.10;99.90;;;;;;5033864;28;20174;-67
2023/12/19 01:39:47;;;;;;;5.50;4.30;;;2.00;99.90;;;;;;5034403;28;20545;-68
2023/12/19 01:42:13;;;;;;;4.23;3.83;;;2.00;99.90;;;;;;5034153;28;20197;-67
2023/12/19 01:44:38;;;;;;;4.43;4.00;;;2.00;99.90;;;;;;5034053;28;20224;-67
2023/12/19 01:47:04;;;;;;;4.97;4.37;;;2.10;99.90;;;;;;5033636;28;20562;-67
2023/12/19 01:49:30;;;;;;;4.80;3.90;;;2.10;99.90;;;;;;5034228;28;20166;-67
2023/12/19 01:51:55;;;;;;;5.33;3.87;;;2.00;99.90;;;;;;5034006;28;20200;-67
2023/12/19 01:54:21;;;;;;;4.30;3.90;;;2.00;99.90;;;;;;5033877;28;20504;-67
2023/12/19 01:56:47;;;;;;;4.40;4.00;;;1.90;99.90;;;;;;5033741;28;20253;-68
2023/12/19 01:59:13;;;;;;;8.20;5.53;;;1.90;99.90;;;;;;5033787;28;20421;-67
2023/12/19 02:01:39;;;;;;;8.53;5.90;;;1.90;99.90;;;;;;5033828;28;20177;-68
2023/12/19 02:04:06;;;;;;;8.80;5.80;;;1.90;99.90;;;;;;5033577;28;20828;-67
2023/12/19 02:06:34;;;;;;;6.03;4.50;;;1.90;99.90;;;;;;5033341;28;20650;-68
2023/12/19 02:09:01;;;;;;;11.17;4.47;;;1.90;99.90;;;;;;5033643;28;20428;-67
2023/12/19 02:11:26;;;;;;;5.33;4.60;;;2.00;99.90;;;;;;5033576;28;20984;-68
2023/12/19 02:13:53;;;;;;;7.40;3.80;;;2.00;99.90;;;;;;5033290;28;20547;-67
2023/12/19 02:16:19;;;;;;;4.40;4.00;;;2.00;99.90;;;;;;5033361;28;20474;-68
2023/12/19 02:18:44;;;;;;;7.00;5.83;;;1.90;99.90;;;;;;5033420;28;20900;-68
2023/12/19 02:21:10;;;;;;;4.67;4.10;;;1.80;99.90;;;;;;5033402;28;20175;-67
2023/12/19 02:23:36;;;;;;;4.90;4.30;;;1.70;99.90;;;;;;5033383;28;20244;-68
2023/12/19 02:26:02;;;;;;;5.20;4.70;;;1.60;99.90;;;;;;5033274;28;20166;-67
2023/12/19 02:28:27;;;;;;;5.93;5.00;;;1.60;99.90;;;;;;5032945;28;20413;-68
2023/12/19 02:30:53;;;;;;;4.93;4.40;;;1.60;99.90;;;;;;5033089;28;20177;-67
2023/12/19 02:33:18;;;;;;;4.87;3.97;;;1.50;99.90;;;;;;5032378;28;20559;-68
2023/12/19 02:35:44;;;;;;;4.70;4.20;;;1.50;99.90;;;;;;5033024;28;20209;-69
2023/12/19 02:38:09;;;;;;;5.67;4.77;;;1.50;99.90;;;;;;5032869;28;20170;-67
2023/12/19 02:40:35;;;;;;;7.93;4.80;;;1.50;99.90;;;;;;5032951;28;20568;-67
2023/12/19 02:43:01;;;;;;;4.40;4.00;;;1.50;99.90;;;;;;5031758;28;20210;-67
2023/12/19 02:45:30;;;;;;;6.30;4.97;;;1.60;99.90;;;;;;5033035;28;20196;-68
2023/12/19 02:47:55;;;;;;;4.77;4.23;;;1.60;99.90;;;;;;5032609;28;20918;-67
2023/12/19 02:50:21;;;;;;;6.27;4.60;;;1.60;99.90;;;;;;5032816;28;20478;-68
2023/12/19 02:52:46;;;;;;;5.27;4.10;;;1.50;99.90;;;;;;5032754;28;20225;-67
2023/12/19 02:55:12;;;;;;;4.80;3.57;;;1.40;99.90;;;;;;5032872;28;20296;-68
2023/12/19 02:57:38;;;;;;;6.63;5.17;;;1.40;99.90;;;;;;5032385;28;20658;-68
2023/12/19 03:00:05;;;;;;;6.17;4.20;;;1.50;99.90;;;;;;5032777;28;20170;-68
2023/12/19 03:02:31;;;;;;;6.33;4.90;;;1.60;99.90;;;;;;5034473;28;20805;-68
2023/12/19 03:04:56;;;;;;;5.83;4.40;;;1.60;99.90;;;;;;5052579;28;20423;-68
2023/12/19 03:07:22;;;;;;;5.57;4.77;;;1.60;99.90;;;;;;5052236;28;20170;-67
2023/12/19 03:09:48;;;;;;;5.60;5.10;;;1.50;99.90;;;;;;5052452;28;20244;-67
2023/12/19 03:12:13;;;;;;;5.30;4.60;;;1.40;99.90;;;;;;5052114;28;20572;-68
2023/12/19 03:14:39;;;;;;;5.67;4.20;;;1.30;99.90;;;;;;5052313;28;20208;-68
2023/12/19 03:17:05;;;;;;;4.07;3.67;;;1.30;99.90;;;;;;5052214;28;20658;-68
2023/12/19 03:19:31;;;;;;;4.70;4.10;;;1.30;99.90;;;;;;5052394;28;20177;-67
2023/12/19 03:21:57;;;;;;;4.40;4.00;;;1.30;99.90;;;;;;5052106;28;20473;-67
2023/12/19 03:24:22;;;;;;;5.20;4.37;;;1.30;99.90;;;;;;5052339;28;20460;-68
2023/12/19 03:26:48;;;;;;;7.87;4.20;;;1.20;99.90;;;;;;5039912;28;20182;-67
2023/12/19 03:29:14;;;;;;;4.53;3.50;;;1.20;99.90;;;;;;5032243;28;20166;-68
2023/12/19 03:31:40;;;;;;;6.73;3.70;;;1.10;99.90;;;;;;5032288;28;20413;-67
2023/12/19 03:34:06;;;;;;;5.87;4.43;;;1.20;99.90;;;;;;5032188;28;20817;-68
2023/12/19 03:36:32;;;;;;;4.37;3.70;;;1.10;99.90;;;;;;5031801;28;20170;-68
2023/12/19 03:38:57;;;;;;;5.50;4.43;;;1.10;99.90;;;;;;5032133;28;20171;-67
2023/12/19 03:41:23;;;;;;;5.60;4.90;;;1.10;99.90;;;;;;5032121;28;20260;-67
2023/12/19 03:43:48;;;;;;;4.57;4.07;;;1.20;99.90;;;;;;5031591;28;20205;-67
2023/12/19 03:46:14;;;;;;;4.50;3.70;;;1.20;99.90;;;;;;5032067;28;20170;-68
2023/12/19 03:48:44;;;;;;;5.73;4.17;;;1.20;99.90;;;;;;5031878;28;20850;-67
2023/12/19 03:51:10;;;;;;;4.40;4.00;;;1.00;99.90;;;;;;5032022;28;20166;-67
2023/12/19 03:53:36;;;;;;;6.40;4.07;;;1.00;99.90;;;;;;5031977;28;20822;-68
2023/12/19 03:56:01;;;;;;;4.20;3.77;;;1.00;99.90;;;;;;5031966;28;20689;-68
2023/12/19 03:58:27;;;;;;;5.60;4.43;;;1.00;99.90;;;;;;5031818;28;20181;-68
2023/12/19 04:00:52;;;;;;;6.13;4.67;;;1.10;99.90;;;;;;5032168;28;20182;-67
2023/12/19 04:03:18;;;;;;;6.50;5.07;;;1.20;99.90;;;;;;5031960;28;20202;-68
2023/12/19 04:05:44;;;;;;;6.97;5.10;;;1.20;99.90;;;;;;5031914;28;20228;-67
2023/12/19 04:08:10;;;;;;;6.00;4.10;;;1.20;99.90;;;;;;5031558;28;20417;-67
2023/12/19 04:10:35;;;;;;;6.40;4.87;;;1.20;99.90;;;;;;5031830;28;20523;-67
2023/12/19 04:13:01;;;;;;;8.10;5.07;;;1.10;99.90;;;;;;5031630;28;20292;-68
2023/12/19 04:15:26;;;;;;;5.77;5.27;;;1.20;99.90;;;;;;5031821;28;20707;-68
2023/12/19 04:17:52;;;;;;;7.87;5.90;;;1.20;99.90;;;;;;5030417;28;20179;-67
2023/12/19 04:20:17;;;;;;;6.40;5.80;;;1.10;99.90;;;;;;5031886;28;20263;-68
2023/12/19 04:22:43;;;;;;;7.33;5.63;;;1.10;99.90;;;;;;5031725;28;20210;-67
2023/12/19 04:25:08;;;;;;;8.80;6.00;;;1.20;99.90;;;;;;5031709;28;20620;-68
2023/12/19 04:27:34;;;;;;;8.07;5.70;;;1.30;99.90;;;;;;5031286;28;20179;-67
2023/12/19 04:30:00;;;;;;;7.03;6.33;;;1.30;99.90;;;;;;5031685;28;20174;-68
2023/12/19 04:32:25;;;;;;;5.83;5.23;;;1.30;99.90;;;;;;5031512;28;20540;-67
2023/12/19 04:34:51;;;;;;;5.13;4.50;;;1.30;99.90;;;;;;5031736;28;20185;-68
2023/12/19 04:37:16;;;;;;;5.83;5.23;;;1.20;99.90;;;;;;5031441;28;20169;-68
2023/12/19 04:39:42;;;;;;;7.27;5.63;;;1.20;99.90;;;;;;5031660;28;20644;-67
2023/12/19 04:42:07;;;;;;;9.80;5.53;;;1.10;99.90;;;;;;5031540;28;20179;-67
2023/12/19 04:44:34;;;;;;;6.60;5.80;;;1.10;99.90;;;;;;5031550;28;20244;-67
2023/12/19 04:46:59;;;;;;;5.73;5.00;;;1.20;99.90;;;;;;5031307;28;20167;-68
2023/12/19 04:49:25;;;;;;;6.17;4.93;;;1.20;99.90;;;;;;5031744;28;20435;-67
2023/12/19 04:51:51;;;;;;;5.60;5.10;;;1.30;99.90;;;;;;5031358;28;20167;-67
2023/12/19 04:54:17;;;;;;;5.80;5.23;;;1.30;99.90;;;;;;5031353;28;20186;-67
2023/12/19 04:56:42;;;;;;;6.37;4.33;;;1.30;99.90;;;;;;5033837;28;20417;-67
2023/12/19 04:59:08;;;;;;;5.77;5.10;;;1.20;99.90;;;;;;5034912;28;20596;-68
2023/12/19 05:01:34;;;;;;;7.00;3.80;;;1.20;99.90;;;;;;5034905;28;20178;-67
2023/12/19 05:03:59;;;;;;;3.47;3.20;;;1.20;99.90;;;;;;5034707;28;20581;-68
2023/12/19 05:06:25;;;;;;;3.80;3.50;;;1.20;99.90;;;;;;5034787;28;20198;-68
2023/12/19 05:08:51;;;;;;;3.73;3.30;;;1.30;99.90;;;;;;5034926;28;20213;-68
2023/12/19 05:11:16;;;;;;;3.97;3.37;;;1.30;99.90;;;;;;5034725;28;20170;-67
2023/12/19 05:13:42;;;;;;;3.83;2.90;;;1.30;99.90;;;;;;5034559;28;20205;-67
2023/12/19 05:16:17;;;;;;;3.10;2.73;;;1.40;99.90;;;;;;5034633;28;20212;-66
2023/12/19 05:18:44;;;;;;;4.07;2.07;;;1.40;99.90;;;;;;5034557;28;20181;-67
2023/12/19 05:21:10;;;;;;;3.37;3.07;;;1.60;99.90;;;;;;5033409;28;20425;-70
2023/12/19 05:23:36;;;;;;;3.50;3.00;;;1.70;99.90;;;;;;5034564;28;20515;-67
2023/12/19 05:26:05;;;;;;;2.77;2.33;;;1.90;99.90;;;;;;5034613;28;20428;-67
2023/12/19 05:28:31;;;;;;;2.63;2.00;;;2.10;99.90;;;;;;5034240;28;20471;-67
2023/12/19 05:30:57;;;;;;;2.90;2.30;;;2.30;99.90;;;;;;5034251;28;20972;-67
2023/12/19 05:33:30;;;;;;;3.50;2.97;;;2.30;99.90;;;;;;5034440;28;20441;-67
2023/12/19 05:35:55;;;;;;;3.53;2.00;;;2.30;99.90;;;;;;5034162;28;20632;-68
2023/12/19 05:38:21;;;;;;;2.63;2.40;;;2.50;99.90;;;;;;5033904;28;20433;-66
2023/12/19 05:40:47;;;;;;;1.87;1.77;;;2.60;99.90;;;;;;5034251;28;20187;-67
2023/12/19 05:43:14;;;;;;;3.90;2.30;;;2.80;99.90;;;;;;5033978;28;20264;-67
2023/12/19 05:45:40;;;;;;;2.90;2.00;;;2.80;99.90;;;;;;5034117;28;20421;-67
2023/12/19 05:48:06;;;;;;;3.03;2.57;;;2.70;99.90;;;;;;5033818;28;20486;-67
2023/12/19 05:50:32;;;;;;;3.80;3.03;;;2.50;99.90;;;;;;5034045;28;20424;-67
2023/12/19 05:52:57;;;;;;;9.97;5.37;;;2.30;99.90;;;;;;5033902;28;20444;-67
2023/12/19 05:55:23;;;;;;;12.67;8.30;;;2.20;99.90;;;;;;5034107;28;20201;-67
2023/12/19 05:57:49;;;;;;;6.60;4.60;;;2.00;99.90;;;;;;5033637;28;20670;-67
2023/12/19 06:00:15;;;;;;;3.67;2.67;;;1.90;99.90;;;;;;5034224;28;20432;-67
2023/12/19 06:02:41;;;;;;;3.87;2.40;;;1.90;99.90;;;;;;5033822;28;20233;-67
2023/12/19 06:05:07;;;;;;;6.10;3.13;;;1.80;99.90;;;;;;5033651;28;20918;-67
2023/12/19 06:07:42;;;;;;;3.13;2.80;;;1.80;99.90;;;;;;5031929;28;20196;-67
2023/12/19 06:10:08;;;;;;;7.00;2.17;;;1.80;99.90;;;;;;5033765;28;20419;-67
2023/12/19 06:12:34;;;;;;;3.43;2.53;;;1.90;99.90;;;;;;5034119;28;20543;-66
2023/12/19 06:15:00;;;;;;;3.23;2.20;;;2.10;99.90;;;;;;5033603;28;20448;-67
2023/12/19 06:17:25;;;;;;;3.00;2.33;;;2.30;99.90;;;;;;5033143;28;20223;-67
2023/12/19 06:19:51;;;;;;;3.97;2.50;;;2.50;99.90;;;;;;5033338;28;20205;-67
2023/12/19 06:22:17;;;;;;;2.87;2.57;;;2.60;99.90;;;;;;5033285;28;20195;-67
2023/12/19 06:24:42;;;;;;;5.83;2.73;;;2.60;99.90;;;;;;5032132;28;20246;-67
2023/12/19 06:27:08;;;;;;;5.63;4.40;;;2.60;99.90;;;;;;5033087;28;20167;-67
2023/12/19 06:29:34;;;;;;;5.23;4.17;;;2.50;99.90;;;;;;5033284;28;20187;-67
2023/12/19 06:31:59;;;;;;;11.70;7.70;;;2.40;99.90;;;;;;5033180;28;20167;-67
2023/12/19 06:34:28;;;;;;;10.80;8.40;;;2.20;99.90;;;;;;5033120;28;20837;-67
2023/12/19 06:36:53;;;;;;;13.63;7.73;;;2.00;99.90;;;;;;5032881;28;20167;-67
2023/12/19 06:39:19;;;;;;;9.33;7.20;;;1.80;99.90;;;;;;5033038;28;20538;-67
2023/12/19 06:41:45;;;;;;;10.90;7.60;;;1.60;99.90;;;;;;5033097;28;20537;-68
2023/12/19 06:44:12;;;;;;;12.43;8.00;;;1.30;99.90;;;;;;5032592;28;20603;-67
2023/12/19 06:46:37;;;;;;;6.80;3.87;;;1.20;99.90;;;;;;5032734;28;20196;-67
2023/12/19 06:49:04;;;;;;;8.20;4.20;;;1.20;99.90;;;;;;5032857;28;20445;-67
2023/12/19 06:51:29;;;;;;;5.67;4.70;;;1.20;99.90;;;;;;5032864;28;20174;-67
2023/12/19 06:53:56;;;;;;;11.23;4.13;;;1.10;99.90;;;;;;5032706;28;20437;-67
2023/12/19 06:56:26;;;;;;;4.73;4.00;;;0.90;99.90;;;;;;5032610;28;20171;-67
2023/12/19 06:58:52;;;;;;;9.03;4.87;;;0.90;99.90;;;;;;5032932;28;20417;-67
2023/12/19 07:01:18;;;;;;;12.90;7.30;;;0.90;99.90;;;;;;5032610;28;20428;-66
2023/12/19 07:03:43;;;;;;;19.37;13.67;;;0.90;99.90;;;;;;5032246;28;20468;-68
2023/12/19 07:06:15;;;;;;;18.80;9.13;;;0.80;99.90;;;;;;5032458;28;20241;-67
2023/12/19 07:08:41;;;;;;;11.63;6.00;;;0.70;99.90;;;;;;5032356;28;20257;-67
2023/12/19 07:11:07;;;;;;;11.60;7.37;;;0.70;99.90;;;;;;5032413;28;20421;-67
2023/12/19 07:13:33;;;;;;;10.10;7.00;;;0.70;99.90;;;;;;5032216;28;20511;-67
2023/12/19 07:15:58;;;;;;;6.33;5.73;;;0.70;99.90;;;;;;5031949;28;20421;-67
2023/12/19 07:18:24;;;;;;;9.70;6.73;;;0.70;99.90;;;;;;5031822;28;20270;-67
2023/12/19 07:20:50;;;;;;;8.00;7.20;;;0.80;99.90;;;;;;5032471;28;20261;-66
2023/12/19 07:23:15;;;;;;;8.03;6.90;;;0.80;99.90;;;;;;5032112;28;20205;-67
2023/12/19 07:25:41;;;;;;;10.90;9.90;;;0.80;99.90;;;;;;5032418;28;20271;-67
2023/12/19 07:28:07;;;;;;;11.70;7.93;;;0.80;99.90;;;;;;5031924;28;20219;-67
2023/12/19 07:30:32;;;;;;;10.30;6.37;;;0.70;99.90;;;;;;5032340;28;20292;-67
2023/12/19 07:32:59;;;;;;;9.00;6.00;;;0.80;99.90;;;;;;5032065;28;20198;-67
2023/12/19 07:35:25;;;;;;;8.90;7.23;;;0.80;99.90;;;;;;5032149;28;20162;-66
2023/12/19 07:37:50;;;;;;;8.73;6.67;;;0.90;99.90;;;;;;5031913;28;20854;-67
2023/12/19 07:40:16;;;;;;;30.63;14.03;;;0.90;99.90;;;;;;5032070;28;20655;-66
2023/12/19 07:42:43;;;;;;;21.37;13.17;;;0.90;99.90;;;;;;5031950;28;20283;-66
2023/12/19 07:45:08;;;;;;;20.90;13.00;;;0.70;99.90;;;;;;5040754;28;20256;-67
2023/12/19 07:47:34;;;;;;;27.20;13.40;;;0.80;99.90;;;;;;5051645;28;20474;-67
2023/12/19 07:49:59;;;;;;;30.07;19.40;;;1.10;99.90;;;;;;5052026;28;20180;-68
2023/12/19 07:52:25;;;;;;;21.30;11.30;;;1.90;99.90;;;;;;5050447;28;20274;-68
2023/12/19 07:54:51;;;;;;;18.40;12.97;;;3.00;99.90;;;;;;5049640;28;20256;-66
2023/12/19 07:57:17;;;;;;;19.43;10.67;;;4.20;99.90;;;;;;5049987;28;20177;-66
2023/12/19 07:59:42;;;;;;;20.23;12.33;;;5.50;99.90;;;;;;5051120;28;20424;-67
2023/12/19 08:02:08;;;;;;;15.80;10.93;;;6.60;99.90;;;;;;5051761;28;20197;-66
2023/12/19 08:04:34;;;;;;;16.73;11.73;;;7.30;99.90;;;;;;5051618;28;20201;-66
2023/12/19 08:07:01;;;;;;;24.67;16.37;;;8.30;99.90;;;;;;5051385;28;20184;-66
2023/12/19 08:09:29;;;;;;;18.43;11.50;;;8.80;99.90;;;;;;5051588;28;20419;-67
2023/12/19 08:11:56;;;;;;;13.20;10.23;;;9.20;99.90;;;;;;5051667;28;20917;-66
2023/12/19 08:14:24;;;;;;;9.60;8.60;;;10.20;99.90;;;;;;5051826;28;20419;-66
2023/12/19 08:16:50;;;;;;;15.03;10.53;;;11.00;99.90;;;;;;5051492;28;20854;-66
2023/12/19 08:19:16;;;;;;;11.43;10.20;;;11.50;99.90;;;;;;5051598;28;20499;-66
2023/12/19 08:21:49;;;;;;;13.43;11.10;;;11.70;97.00;;;;;;5051683;28;20256;-67
2023/12/19 08:24:15;;;;;;;11.80;10.23;;;11.40;99.10;;;;;;5051751;28;20594;-68
2023/12/19 08:26:49;;;;;;;15.40;10.97;;;12.10;97.00;;;;;;5051145;28;20428;-67
2023/12/19 08:29:15;;;;;;;14.10;10.40;;;13.00;94.00;;;;;;5051687;28;20172;-68
2023/12/19 08:31:41;;;;;;;11.10;10.00;;;13.50;90.10;;;;;;5054412;28;20420;-68
2023/12/19 08:34:06;;;;;;;10.30;9.30;;;14.10;87.00;;;;;;5055178;28;20466;-68
2023/12/19 08:36:32;;;;;;;13.97;11.00;;;14.90;79.40;;;;;;5055140;28;20220;-68
2023/12/19 08:38:59;;;;;;;13.17;11.67;;;15.20;74.90;;;;;;5055468;28;20184;-68
2023/12/19 08:41:24;;;;;;;13.43;11.70;;;15.20;70.90;;;;;;5055064;28;20817;-68
2023/12/19 08:43:50;;;;;;;13.43;10.60;;;15.50;69.40;;;;;;5054920;28;20467;-68
2023/12/19 08:46:19;;;;;;;11.90;10.87;;;15.40;68.00;;;;;;5052635;28;20227;-68
2023/12/19 08:48:47;;;;;;;18.47;16.50;;;15.00;69.80;;;;;;5054781;28;20166;-68
2023/12/19 08:51:12;;;;;;;17.33;15.00;;;15.30;67.90;;;;;;5054947;28;20448;-68
2023/12/19 08:53:38;;;;;;;21.33;17.03;;;15.00;67.90;;;;;;5053694;28;20509;-68
2023/12/19 08:56:04;;;;;;;12.53;11.33;;;14.80;69.70;;;;;;5054702;28;20416;-68
2023/12/19 08:58:30;;;;;;;12.73;11.43;;;15.40;68.50;;;;;;5054581;28;20217;-68
2023/12/19 09:00:56;;;;;;;15.63;11.97;;;15.50;65.30;;;;;;5047147;28;20628;-69
2023/12/19 09:03:23;;;;;;;13.07;11.83;;;15.70;63.80;;;;;;5034588;28;20463;-68
2023/12/19 09:05:49;;;;;;;15.33;13.83;;;16.60;63.10;;;;;;5034712;28;20217;-69
2023/12/19 09:08:15;;;;;;;12.93;11.77;;;17.00;59.30;;;;;;5034401;28;20417;-68
2023/12/19 09:10:41;;;;;;;16.10;14.60;;;16.80;59.90;;;;;;5034591;28;20467;-68
2023/12/19 09:13:07;;;;;;;14.03;12.20;;;17.30;57.90;;;;;;5034549;28;20209;-68
2023/12/19 09:15:32;;;;;;;13.33;12.03;;;17.50;56.00;;;;;;5034740;28;20175;-71
2023/12/19 09:17:58;;;;;;;15.53;14.00;;;17.40;55.90;;;;;;5034201;28;20170;-69
2023/12/19 09:20:24;;;;;;;14.47;13.03;;;17.30;55.20;;;;;;5034649;28;20219;-69
2023/12/19 09:22:50;;;;;;;14.93;13.50;;;18.10;54.40;;;;;;5034275;28;20194;-70
2023/12/19 09:25:16;;;;;;;15.60;14.03;;;18.60;53.60;;;;;;5034422;28;20991;-70
2023/12/19 09:27:42;;;;;;;13.07;11.97;;;19.10;50.80;;;;;;5034138;28;20448;-69
2023/12/19 09:30:09;;;;;;;13.23;12.13;;;18.90;50.90;;;;;;5034360;28;20457;-69
2023/12/19 09:32:37;;;;;;;14.87;13.50;;;19.40;49.50;;;;;;5034263;28;20194;-69
2023/12/19 09:35:04;;;;;;;16.07;14.37;;;20.20;47.10;;;;;;5034228;28;20789;-70
2023/12/19 09:37:29;;;;;;;14.57;13.30;;;19.80;47.10;;;;;;5033784;28;20425;-69
2023/12/19 09:39:55;;;;;;;15.20;13.80;;;19.70;47.20;;;;;;5039498;28;20419;-69
2023/12/19 09:42:20;;;;;;;13.40;12.33;;;19.30;46.60;;;;;;5053517;28;20236;-70
2023/12/19 09:44:47;;;;;;;16.53;15.00;;;19.60;46.80;;;;;;5036945;28;20209;-69
2023/12/19 09:47:20;;;;;;;16.23;14.73;;;19.50;46.10;;;;;;5053283;28;20166;-70
2023/12/19 09:49:48;;;;;;;12.80;11.70;;;19.40;45.70;;;;;;5053941;28;20495;-69
2023/12/19 09:52:14;;;;;;;18.77;16.87;;;19.00;46.20;;;;;;5053786;28;20870;-69
2023/12/19 09:54:40;;;;;;;14.93;13.50;;;18.60;46.60;;;;;;5053814;28;20439;-69
2023/12/19 09:57:08;;;;;;;14.73;13.53;;;17.90;48.40;;;;;;5053447;28;20503;-69
2023/12/19 09:59:35;;;;;;;14.53;13.37;;;18.20;48.80;;;;;;5053656;28;20493;-68
2023/12/19 10:02:01;;;;;;;14.30;13.10;;;17.90;48.50;;;;;;5053482;28;20420;-68
2023/12/19 10:04:27;;;;;;;15.90;14.70;;;16.40;50.30;;;;;;5053585;28;20953;-68
2023/12/19 10:06:58;;;;;;;14.83;13.63;;;14.80;53.80;;;;;;5053138;28;20175;-68
2023/12/19 10:09:24;;;;;;;16.97;15.07;;;13.40;60.10;;;;;;5053575;28;20458;-68
2023/12/19 10:12:10;;;;;;;16.67;14.90;;;12.30;70.40;;;;;;5053255;28;20917;-68
2023/12/19 10:14:36;;;;;;;18.20;15.23;;;11.40;80.20;;;;;;5053652;28;20455;-68
2023/12/19 10:17:06;;;;;;;16.40;14.80;;;10.90;86.30;;;;;;5052645;28;20424;-67
2023/12/19 10:19:34;;;;;;;16.17;14.70;;;10.00;91.90;;;;;;5053310;28;20408;-67
2023/12/19 10:22:06;;;;;;;16.10;14.53;;;9.20;97.70;;;;;;5053311;28;20844;-67
2023/12/19 10:24:32;;;;;;;20.93;18.07;;;8.90;99.90;;;;;;5053133;28;20786;-68
2023/12/19 10:27:00;;;;;;;16.97;15.00;;;8.70;99.90;;;;;;5053273;28;20427;-67
2023/12/19 10:29:25;;;;;;;16.70;14.90;;;8.60;99.90;;;;;;5053300;28;20162;-68
2023/12/19 10:31:51;;;;;;;14.73;13.33;;;8.50;99.90;;;;;;5051812;28;20429;-68
2023/12/19 10:34:22;;;;;;;16.27;14.00;;;8.10;99.90;;;;;;5053074;28;20170;-68
2023/12/19 10:36:48;;;;;;;17.40;14.57;;;8.10;99.90;;;;;;5052755;28;20169;-67
2023/12/19 10:39:18;;;;;;;16.13;14.53;;;8.20;99.90;;;;;;5053106;28;20431;-68
2023/12/19 10:41:44;;;;;;;15.63;14.03;;;8.30;99.90;;;;;;5052997;28;20166;-68
2023/12/19 10:44:12;;;;;;;15.70;13.40;;;7.80;99.90;;;;;;5052745;28;20470;-68
2023/12/19 10:46:38;;;;;;;16.40;14.67;;;7.60;99.90;;;;;;5052362;28;20639;-67
2023/12/19 10:49:04;;;;;;;15.70;14.20;;;7.40;99.90;;;;;;5053065;28;20558;-68
2023/12/19 10:51:37;;;;;;;15.03;13.40;;;7.20;99.90;;;;;;5052679;28;20420;-68
2023/12/19 10:54:13;;;;;;;16.23;13.70;;;7.20;99.90;;;;;;5051843;28;20940;-67
2023/12/19 10:57:04;;;;;;;12.87;11.60;;;7.20;99.90;;;;;;5052637;28;20905;-67
2023/12/19 10:59:33;;;;;;;14.73;13.17;;;7.20;99.90;;;;;;5052411;28;20431;-67
2023/12/19 11:02:32;;;;;;;15.83;12.50;;;7.30;99.90;;;;;;5052442;28;20408;-67
2023/12/19 11:05:10;;;;;;;15.43;12.77;;;7.20;99.90;;;;;;5052693;28;20431;-67
2023/12/19 11:07:38;;;;;;;14.03;12.60;;;7.30;99.90;;;;;;5052138;28;20414;-68
2023/12/19 11:10:07;;;;;;;17.50;13.37;;;7.50;99.90;;;;;;5052427;28;20518;-68
2023/12/19 11:12:33;;;;;;;15.43;13.80;;;8.00;99.90;;;;;;5050994;28;20459;-68
2023/12/19 11:14:59;;;;;;;13.97;12.57;;;8.50;99.90;;;;;;5052117;28;20427;-68
2023/12/19 11:17:33;;;;;;;13.60;12.20;;;9.20;99.90;;;;;;5049534;28;20448;-68
2023/12/19 11:20:12;;;;;;;15.07;13.40;;;9.50;99.90;;;;;;5034602;28;20436;-68
2023/12/19 11:22:53;;;;;;;14.40;12.30;;;10.60;99.90;;;;;;5032150;28;20455;-68
2023/12/19 11:25:44;;;;;;;16.90;15.20;;;12.50;95.80;;;;;;5032316;28;20416;-68
2023/12/19 11:28:09;;;;;;;14.33;13.07;;;14.10;89.00;;;;;;5029863;28;20428;-69
2023/12/19 11:30:43;;;;;;;15.47;13.90;;;14.40;78.40;;;;;;5032017;28;20484;-68
2023/12/19 11:33:12;;;;;;;15.53;13.93;;;13.80;78.30;;;;;;5032132;28;20275;-68
2023/12/19 11:35:38;;;;;;;16.60;15.10;;;13.40;81.10;;;;;;5032190;28;20509;-68
2023/12/19 11:38:26;;;;;;;16.53;14.67;;;12.90;85.30;;;;;;5031811;28;20504;-68
2023/12/19 11:40:53;;;;;;;17.10;15.50;;;13.30;84.40;;;;;;5032138;28;20196;-68
2023/12/19 11:43:28;;;;;;;16.77;15.17;;;14.00;78.60;;;;;;5032199;28;20464;-68
2023/12/19 11:46:06;;;;;;;17.60;15.80;;;14.30;75.90;;;;;;5032056;28;20440;-68
2023/12/19 11:48:46;;;;;;;16.50;15.00;;;14.50;79.40;;;;;;5030898;28;20452;-68
2023/12/19 11:51:12;;;;;;;21.23;14.80;;;15.20;71.60;;;;;;5032205;28;20903;-68
2023/12/19 11:53:39;;;;;;;15.73;14.33;;;15.60;68.20;;;;;;5031929;28;20451;-67
2023/12/19 11:56:10;;;;;;;16.83;15.27;;;15.10;68.00;;;;;;5032076;28;20475;-67
2023/12/19 11:58:37;;;;;;;16.80;15.30;;;14.60;70.60;;;;;;5050655;28;20488;-67
2023/12/19 12:01:03;;;;;;;16.63;15.03;;;14.80;69.60;;;;;;5051252;28;20412;-67
2023/12/19 12:03:29;;;;;;;17.20;15.50;;;16.00;66.40;;;;;;5031849;28;20493;-67
2023/12/19 12:05:54;;;;;;;16.27;14.67;;;17.60;58.50;;;;;;5035423;28;20428;-67
2023/12/19 12:08:21;;;;;;;16.83;15.20;;;18.50;55.10;;;;;;5035639;28;20166;-67
2023/12/19 12:11:07;;;;;;;17.23;15.50;;;18.40;53.70;;;;;;5035972;28;20166;-67
2023/12/19 12:13:36;;;;;;;15.27;13.97;;;18.90;51.80;;;;;;5050506;22;20496;-71
2023/12/19 12:16:02;;;;;;;16.93;15.43;;;18.20;51.50;;;;;;5034359;28;20429;-71
2023/12/19 12:18:32;;;;;;;17.70;16.10;;;16.20;54.30;;;;;;5035022;28;20413;-71
2023/12/19 12:21:08;;;;;;;18.20;16.50;;;14.10;59.30;;;;;;5035557;28;21008;-71
2023/12/19 12:23:33;;;;;;;17.10;15.60;;;12.30;70.80;;;;;;5035440;28;20456;-71
2023/12/19 12:25:59;;;;;;;16.83;15.23;;;11.10;82.60;;;;;;5035623;28;20447;-70
2023/12/19 12:28:26;;;;;;;18.47;15.57;;;10.00;93.40;;;;;;5035249;28;20256;-71
2023/12/19 12:30:59;;;;;;;16.70;14.93;;;8.80;99.90;;;;;;5035529;28;20162;-71
2023/12/19 12:33:27;;;;;;;17.50;15.47;;;7.80;99.90;;;;;;5035562;28;20790;-71
2023/12/19 12:35:53;;;;;;;16.77;15.07;;;7.30;99.90;;;;;;5035348;28;20505;-71
2023/12/19 12:38:20;;;;;;;23.53;16.47;;;7.10;99.90;;;;;;5035074;28;20855;-71
2023/12/19 12:41:02;;;;;;;17.83;14.37;;;6.80;99.90;;;;;;5035443;28;20413;-71
2023/12/19 12:43:35;;;;;;;17.33;14.40;;;6.60;99.90;;;;;;5035230;28;20459;-71